KFA273 CYYC-CYLW
Flight info
| Callsign | KFA273 |
|---|---|
| Flight time | 1h 3m |
| Altitude | 30000 |
| Route | BOTAG Q894 BINVO DCT WTMAN |
| Aircraft | B722/M-SDFGHRWY/C |
Departure
| Time | 2026-05-04 21:30 |
|---|---|
| Airport | Calgary International Airport (CYYC) |
Arrival
| Time | 2026-05-04 22:33 |
|---|---|
| Airport | Kelowna International Airport (CYLW) |
| Time | Latitude | Longitude | Altitude | Speed | Heading |
|---|---|---|---|---|---|
| 2026-05-04 20:44 | 51.12943 | -114.03158 | 3562 ft | 0 kts | 28° |
| 2026-05-04 21:12 | 51.12864 | -114.03248 | 3562 ft | 0 kts | 120° |
| 2026-05-04 21:21 | 51.12851 | -114.03214 | 3562 ft | 8 kts | 120° |
| 2026-05-04 21:21 | 51.12798 | -114.03154 | 3562 ft | 12 kts | 178° |
| 2026-05-04 21:21 | 51.12715 | -114.03119 | 3562 ft | 17 kts | 121° |
| 2026-05-04 21:22 | 51.12639 | -114.02892 | 3562 ft | 29 kts | 118° |
| 2026-05-04 21:22 | 51.12604 | -114.02528 | 3562 ft | 39 kts | 90° |
| 2026-05-04 21:22 | 51.12603 | -114.02157 | 3560 ft | 38 kts | 90° |
| 2026-05-04 21:22 | 51.12601 | -114.01788 | 3563 ft | 32 kts | 90° |
| 2026-05-04 21:23 | 51.12596 | -114.01590 | 3563 ft | 1 kts | 143° |
| 2026-05-04 21:23 | 51.12595 | -114.01590 | 3563 ft | 0 kts | 144° |
| 2026-05-04 21:23 | 51.12572 | -114.01569 | 3563 ft | 8 kts | 156° |
| 2026-05-04 21:23 | 51.12494 | -114.01566 | 3563 ft | 17 kts | 179° |
| 2026-05-04 21:24 | 51.12338 | -114.01568 | 3563 ft | 28 kts | 181° |
| 2026-05-04 21:24 | 51.12161 | -114.01517 | 3563 ft | 14 kts | 124° |
| 2026-05-04 21:24 | 51.12104 | -114.01351 | 3562 ft | 23 kts | 120° |
| 2026-05-04 21:24 | 51.12002 | -114.01074 | 3563 ft | 35 kts | 120° |
| 2026-05-04 21:25 | 51.11880 | -114.00742 | 3563 ft | 29 kts | 117° |
| 2026-05-04 21:25 | 51.11822 | -114.00429 | 3563 ft | 30 kts | 87° |
| 2026-05-04 21:25 | 51.11823 | -114.00056 | 3563 ft | 36 kts | 90° |
| 2026-05-04 21:25 | 51.11823 | -113.99647 | 3563 ft | 25 kts | 89° |
| 2026-05-04 21:26 | 51.11796 | -113.99449 | 3563 ft | 10 kts | 166° |
| 2026-05-04 21:26 | 51.11720 | -113.99446 | 3563 ft | 11 kts | 180° |
| 2026-05-04 21:26 | 51.11627 | -113.99447 | 3563 ft | 16 kts | 180° |
| 2026-05-04 21:26 | 51.11493 | -113.99448 | 3563 ft | 23 kts | 180° |
| 2026-05-04 21:27 | 51.11332 | -113.99449 | 3563 ft | 23 kts | 180° |
| 2026-05-04 21:27 | 51.11177 | -113.99447 | 3563 ft | 14 kts | 180° |
| 2026-05-04 21:27 | 51.11097 | -113.99447 | 3563 ft | 12 kts | 180° |
| 2026-05-04 21:27 | 51.11040 | -113.99398 | 3563 ft | 8 kts | 107° |
| 2026-05-04 21:28 | 51.11034 | -113.99313 | 3563 ft | 8 kts | 92° |
| 2026-05-04 21:28 | 51.11033 | -113.99206 | 3565 ft | 11 kts | 89° |
| 2026-05-04 21:28 | 51.11038 | -113.99082 | 3567 ft | 11 kts | 72° |
| 2026-05-04 21:28 | 51.11065 | -113.99042 | 3568 ft | 0 kts | 5° |
| 2026-05-04 21:29 | 51.11078 | -113.99042 | 3568 ft | 11 kts | 0° |
| 2026-05-04 21:29 | 51.11368 | -113.99040 | 3567 ft | 72 kts | 0° |
| 2026-05-04 21:29 | 51.12060 | -113.99043 | 3568 ft | 128 kts | 359° |
| 2026-05-04 21:30 | 51.12728 | -113.99057 | 3615 ft | 151 kts | 358° |
| 2026-05-04 21:30 | 51.14159 | -113.98865 | 4132 ft | 161 kts | 8° |
| 2026-05-04 21:30 | 51.15317 | -113.98598 | 4418 ft | 177 kts | 8° |
| 2026-05-04 21:30 | 51.16514 | -113.98278 | 4986 ft | 172 kts | 9° |
| 2026-05-04 21:31 | 51.18890 | -113.97556 | 5928 ft | 176 kts | 11° |
| 2026-05-04 21:31 | 51.20090 | -113.97135 | 6391 ft | 177 kts | 12° |
| 2026-05-04 21:31 | 51.21295 | -113.96677 | 6846 ft | 180 kts | 12° |
| 2026-05-04 21:32 | 51.22535 | -113.96390 | 7260 ft | 180 kts | 7° |
| 2026-05-04 21:32 | 51.23779 | -113.96104 | 7672 ft | 181 kts | 8° |
| 2026-05-04 21:32 | 51.25034 | -113.95824 | 8055 ft | 182 kts | 5° |
| 2026-05-04 21:32 | 51.26289 | -113.96048 | 8377 ft | 184 kts | 332° |
| 2026-05-04 21:33 | 51.27078 | -113.97550 | 8688 ft | 181 kts | 280° |
| 2026-05-04 21:33 | 51.26835 | -113.99456 | 9002 ft | 180 kts | 230° |
| 2026-05-04 21:33 | 51.25933 | -114.00824 | 9363 ft | 180 kts | 225° |
| 2026-05-04 21:33 | 51.25037 | -114.02249 | 9638 ft | 187 kts | 225° |
| 2026-05-04 21:34 | 51.24085 | -114.03758 | 9780 ft | 198 kts | 224° |
| 2026-05-04 21:34 | 51.23101 | -114.05314 | 9920 ft | 206 kts | 225° |
| 2026-05-04 21:34 | 51.22067 | -114.06945 | 10034 ft | 211 kts | 225° |
| 2026-05-04 21:34 | 51.21026 | -114.08600 | 10101 ft | 212 kts | 225° |
| 2026-05-04 21:35 | 51.19988 | -114.10273 | 10147 ft | 213 kts | 225° |
| 2026-05-04 21:35 | 51.18940 | -114.11990 | 10167 ft | 217 kts | 226° |
| 2026-05-04 21:35 | 51.17900 | -114.13728 | 10193 ft | 216 kts | 226° |
| 2026-05-04 21:35 | 51.16876 | -114.15473 | 10228 ft | 216 kts | 227° |
| 2026-05-04 21:36 | 51.16266 | -114.16525 | 10226 ft | 216 kts | 227° |
| 2026-05-04 21:36 | 51.16189 | -114.16658 | 10224 ft | 216 kts | 227° |
| 2026-05-04 21:41 | 51.15786 | -114.17341 | 10216 ft | 212 kts | 225° |
| 2026-05-04 21:41 | 51.14956 | -114.19263 | 10132 ft | 214 kts | 258° |
| 2026-05-04 21:42 | 51.14854 | -114.21626 | 10168 ft | 215 kts | 268° |
| 2026-05-04 21:42 | 51.14692 | -114.24009 | 10177 ft | 225 kts | 256° |
| 2026-05-04 21:42 | 51.14187 | -114.26533 | 10225 ft | 253 kts | 249° |
| 2026-05-04 21:42 | 51.13550 | -114.29296 | 10285 ft | 278 kts | 250° |
| 2026-05-04 21:43 | 51.12912 | -114.32348 | 10331 ft | 301 kts | 252° |
| 2026-05-04 21:43 | 51.12271 | -114.35590 | 10355 ft | 320 kts | 252° |
| 2026-05-04 21:43 | 51.11566 | -114.39060 | 10365 ft | 327 kts | 251° |
| 2026-05-04 21:43 | 51.10846 | -114.42493 | 10350 ft | 327 kts | 251° |
| 2026-05-04 21:44 | 51.10138 | -114.45881 | 10329 ft | 327 kts | 251° |
| 2026-05-04 21:44 | 51.09430 | -114.49324 | 10304 ft | 327 kts | 252° |
| 2026-05-04 21:44 | 51.08721 | -114.52761 | 10279 ft | 327 kts | 251° |
| 2026-05-04 21:44 | 51.08007 | -114.56195 | 10252 ft | 327 kts | 251° |
| 2026-05-04 21:45 | 51.07291 | -114.59625 | 10228 ft | 327 kts | 251° |
| 2026-05-04 21:45 | 51.06627 | -114.63081 | 10202 ft | 327 kts | 255° |
| 2026-05-04 21:45 | 51.06102 | -114.66584 | 10293 ft | 326 kts | 257° |
| 2026-05-04 21:45 | 51.05619 | -114.70042 | 10244 ft | 305 kts | 256° |
| 2026-05-04 21:46 | 51.05117 | -114.73151 | 10736 ft | 288 kts | 255° |
| 2026-05-04 21:46 | 51.04600 | -114.76271 | 11282 ft | 298 kts | 255° |
| 2026-05-04 21:46 | 51.04073 | -114.79518 | 11841 ft | 304 kts | 254° |
| 2026-05-04 21:46 | 51.03419 | -114.82731 | 12383 ft | 307 kts | 249° |
| 2026-05-04 21:47 | 51.02644 | -114.85914 | 12917 ft | 310 kts | 249° |
| 2026-05-04 21:47 | 51.01894 | -114.89137 | 13445 ft | 313 kts | 250° |
| 2026-05-04 21:47 | 51.01181 | -114.92431 | 13977 ft | 316 kts | 251° |
| 2026-05-04 21:47 | 51.00455 | -114.95744 | 14498 ft | 319 kts | 250° |
| 2026-05-04 21:48 | 50.99702 | -114.99072 | 15024 ft | 322 kts | 250° |
| 2026-05-04 21:48 | 50.98941 | -115.02431 | 15549 ft | 325 kts | 250° |
| 2026-05-04 21:48 | 50.98190 | -115.05777 | 16068 ft | 328 kts | 250° |
| 2026-05-04 21:48 | 50.97424 | -115.09199 | 16594 ft | 331 kts | 250° |
| 2026-05-04 21:49 | 50.96643 | -115.12652 | 17122 ft | 334 kts | 250° |
| 2026-05-04 21:49 | 50.95855 | -115.16133 | 17648 ft | 337 kts | 250° |
| 2026-05-04 21:49 | 50.95062 | -115.19644 | 18174 ft | 340 kts | 250° |
| 2026-05-04 21:49 | 50.94261 | -115.23186 | 18701 ft | 343 kts | 250° |
| 2026-05-04 21:50 | 50.93447 | -115.26766 | 19227 ft | 346 kts | 250° |
| 2026-05-04 21:50 | 50.92626 | -115.30370 | 19752 ft | 349 kts | 250° |
| 2026-05-04 21:50 | 50.91798 | -115.34005 | 20279 ft | 352 kts | 250° |
| 2026-05-04 21:50 | 50.91245 | -115.36434 | 20630 ft | 354 kts | 250° |
| 2026-05-04 21:51 | 50.90403 | -115.40121 | 21153 ft | 358 kts | 250° |
| 2026-05-04 21:51 | 50.89551 | -115.43838 | 21680 ft | 360 kts | 250° |
| 2026-05-04 21:51 | 50.88692 | -115.47588 | 22208 ft | 363 kts | 250° |
| 2026-05-04 21:51 | 50.87826 | -115.51359 | 22730 ft | 365 kts | 250° |
| 2026-05-04 21:52 | 50.86954 | -115.55152 | 23254 ft | 367 kts | 250° |
| 2026-05-04 21:52 | 50.85781 | -115.60236 | 23954 ft | 368 kts | 250° |
| 2026-05-04 21:52 | 50.85200 | -115.62751 | 24300 ft | 368 kts | 250° |
| 2026-05-04 21:52 | 50.84319 | -115.66561 | 24821 ft | 368 kts | 250° |
| 2026-05-04 21:53 | 50.83437 | -115.70364 | 25342 ft | 368 kts | 250° |
| 2026-05-04 21:53 | 50.82557 | -115.74156 | 25860 ft | 366 kts | 250° |
| 2026-05-04 21:53 | 50.81689 | -115.77886 | 26372 ft | 365 kts | 250° |
| 2026-05-04 21:53 | 50.80814 | -115.81642 | 26887 ft | 363 kts | 250° |
| 2026-05-04 21:54 | 50.79944 | -115.85377 | 27402 ft | 360 kts | 249° |
| 2026-05-04 21:54 | 50.79079 | -115.89077 | 27917 ft | 357 kts | 249° |
| 2026-05-04 21:54 | 50.78220 | -115.92741 | 28427 ft | 354 kts | 249° |
| 2026-05-04 21:54 | 50.77371 | -115.96362 | 28936 ft | 349 kts | 249° |
| 2026-05-04 21:55 | 50.76533 | -115.99929 | 29442 ft | 344 kts | 249° |
| 2026-05-04 21:55 | 50.75705 | -116.03444 | 29934 ft | 339 kts | 249° |
| 2026-05-04 21:55 | 50.74871 | -116.06979 | 29997 ft | 348 kts | 249° |
| 2026-05-04 21:56 | 50.73129 | -116.14356 | 30008 ft | 369 kts | 249° |
| 2026-05-04 21:56 | 50.71283 | -116.22131 | 30015 ft | 388 kts | 249° |
| 2026-05-04 21:57 | 50.69338 | -116.30309 | 30014 ft | 407 kts | 249° |
| 2026-05-04 21:57 | 50.67309 | -116.38838 | 30008 ft | 424 kts | 250° |
| 2026-05-04 21:58 | 50.65617 | -116.47933 | 30009 ft | 440 kts | 256° |
| 2026-05-04 21:58 | 50.63966 | -116.57375 | 30016 ft | 453 kts | 252° |
| 2026-05-04 21:58 | 50.63036 | -116.62149 | 29556 ft | 470 kts | 253° |
| 2026-05-04 21:59 | 50.62126 | -116.67175 | 29142 ft | 484 kts | 254° |
| 2026-05-04 21:59 | 50.61229 | -116.72305 | 28652 ft | 482 kts | 254° |
| 2026-05-04 21:59 | 50.60307 | -116.77348 | 28160 ft | 477 kts | 253° |
| 2026-05-04 21:59 | 50.59365 | -116.82323 | 27659 ft | 472 kts | 253° |
| 2026-05-04 22:00 | 50.58448 | -116.87251 | 27158 ft | 467 kts | 253° |
| 2026-05-04 22:00 | 50.57556 | -116.92155 | 26658 ft | 463 kts | 254° |
| 2026-05-04 22:00 | 50.56665 | -116.97003 | 26155 ft | 458 kts | 253° |
| 2026-05-04 22:00 | 50.55777 | -117.01728 | 25660 ft | 454 kts | 253° |
| 2026-05-04 22:01 | 50.54890 | -117.06452 | 25184 ft | 444 kts | 253° |
| 2026-05-04 22:01 | 50.54041 | -117.11016 | 24706 ft | 426 kts | 253° |
| 2026-05-04 22:01 | 50.53222 | -117.15406 | 24221 ft | 411 kts | 253° |
| 2026-05-04 22:01 | 50.52425 | -117.19641 | 23733 ft | 397 kts | 253° |
| 2026-05-04 22:02 | 50.51650 | -117.23745 | 23244 ft | 386 kts | 253° |
| 2026-05-04 22:02 | 50.50896 | -117.27745 | 22759 ft | 378 kts | 253° |
| 2026-05-04 22:02 | 50.50155 | -117.31673 | 22275 ft | 372 kts | 253° |
| 2026-05-04 22:02 | 50.49421 | -117.35547 | 21795 ft | 368 kts | 253° |
| 2026-05-04 22:03 | 50.48693 | -117.39379 | 21391 ft | 363 kts | 253° |
| 2026-05-04 22:03 | 50.47973 | -117.43162 | 21093 ft | 361 kts | 253° |
| 2026-05-04 22:03 | 50.47254 | -117.46936 | 20792 ft | 360 kts | 253° |
| 2026-05-04 22:03 | 50.46536 | -117.50693 | 20492 ft | 358 kts | 253° |
| 2026-05-04 22:04 | 50.45822 | -117.54425 | 20193 ft | 356 kts | 253° |
| 2026-05-04 22:04 | 50.45111 | -117.58137 | 19892 ft | 354 kts | 253° |
| 2026-05-04 22:04 | 50.44403 | -117.61823 | 19591 ft | 352 kts | 253° |
| 2026-05-04 22:04 | 50.43705 | -117.65451 | 19295 ft | 350 kts | 253° |
| 2026-05-04 22:05 | 50.43000 | -117.69100 | 18993 ft | 348 kts | 253° |
| 2026-05-04 22:05 | 50.42300 | -117.72721 | 18695 ft | 346 kts | 253° |
| 2026-05-04 22:05 | 50.41604 | -117.76328 | 18392 ft | 344 kts | 253° |
| 2026-05-04 22:05 | 50.40909 | -117.79910 | 18091 ft | 343 kts | 253° |
| 2026-05-04 22:06 | 50.40215 | -117.83472 | 17835 ft | 341 kts | 253° |
| 2026-05-04 22:06 | 50.39524 | -117.87022 | 17587 ft | 339 kts | 253° |
| 2026-05-04 22:06 | 50.38837 | -117.90552 | 17335 ft | 338 kts | 253° |
| 2026-05-04 22:06 | 50.38149 | -117.94071 | 17085 ft | 336 kts | 252° |
| 2026-05-04 22:07 | 50.37463 | -117.97569 | 16834 ft | 335 kts | 252° |
| 2026-05-04 22:07 | 50.36782 | -118.01047 | 16583 ft | 333 kts | 252° |
| 2026-05-04 22:07 | 50.36102 | -118.04510 | 16333 ft | 332 kts | 252° |
| 2026-05-04 22:07 | 50.35423 | -118.07956 | 16081 ft | 330 kts | 252° |
| 2026-05-04 22:08 | 50.34746 | -118.11388 | 15831 ft | 329 kts | 252° |
| 2026-05-04 22:08 | 50.34073 | -118.14793 | 15583 ft | 327 kts | 252° |
| 2026-05-04 22:08 | 50.33410 | -118.18159 | 15334 ft | 326 kts | 252° |
| 2026-05-04 22:08 | 50.32740 | -118.21532 | 15082 ft | 324 kts | 252° |
| 2026-05-04 22:09 | 50.32071 | -118.24893 | 14831 ft | 323 kts | 252° |
| 2026-05-04 22:09 | 50.31407 | -118.28238 | 14581 ft | 321 kts | 252° |
| 2026-05-04 22:09 | 50.30743 | -118.31572 | 14331 ft | 320 kts | 252° |
| 2026-05-04 22:09 | 50.30081 | -118.34888 | 14079 ft | 318 kts | 252° |
| 2026-05-04 22:10 | 50.29421 | -118.38191 | 13833 ft | 317 kts | 252° |
| 2026-05-04 22:10 | 50.28765 | -118.41466 | 13582 ft | 316 kts | 252° |
| 2026-05-04 22:10 | 50.28108 | -118.44739 | 13328 ft | 314 kts | 252° |
| 2026-05-04 22:10 | 50.27454 | -118.47992 | 13077 ft | 313 kts | 252° |
| 2026-05-04 22:11 | 50.26803 | -118.51228 | 12926 ft | 311 kts | 252° |
| 2026-05-04 22:11 | 50.26153 | -118.54449 | 12853 ft | 311 kts | 252° |
| 2026-05-04 22:11 | 50.25501 | -118.57679 | 12799 ft | 311 kts | 252° |
| 2026-05-04 22:11 | 50.24856 | -118.60866 | 12751 ft | 311 kts | 252° |
| 2026-05-04 22:12 | 50.24204 | -118.64087 | 12699 ft | 311 kts | 252° |
| 2026-05-04 22:12 | 50.23552 | -118.67303 | 12650 ft | 311 kts | 252° |
| 2026-05-04 22:12 | 50.22898 | -118.70516 | 12600 ft | 310 kts | 252° |
| 2026-05-04 22:12 | 50.22243 | -118.73730 | 12550 ft | 310 kts | 252° |
| 2026-05-04 22:13 | 50.21589 | -118.76936 | 12500 ft | 310 kts | 252° |
| 2026-05-04 22:13 | 50.20936 | -118.80141 | 12449 ft | 309 kts | 252° |
| 2026-05-04 22:13 | 50.20280 | -118.83345 | 12400 ft | 309 kts | 252° |
| 2026-05-04 22:13 | 50.19625 | -118.86540 | 12348 ft | 309 kts | 252° |
| 2026-05-04 22:14 | 50.18970 | -118.89729 | 12299 ft | 309 kts | 252° |
| 2026-05-04 22:14 | 50.18315 | -118.92919 | 12250 ft | 308 kts | 252° |
| 2026-05-04 22:14 | 50.17660 | -118.96105 | 12199 ft | 308 kts | 252° |
| 2026-05-04 22:14 | 50.17009 | -118.99260 | 12122 ft | 308 kts | 252° |
| 2026-05-04 22:15 | 50.16354 | -119.02430 | 12027 ft | 309 kts | 252° |
| 2026-05-04 22:15 | 50.15688 | -119.05642 | 11469 ft | 311 kts | 252° |
| 2026-05-04 22:15 | 50.15023 | -119.08854 | 10925 ft | 310 kts | 252° |
| 2026-05-04 22:15 | 50.14416 | -119.12069 | 10370 ft | 308 kts | 255° |
| 2026-05-04 22:16 | 50.13928 | -119.15281 | 10117 ft | 296 kts | 257° |
| 2026-05-04 22:16 | 50.13482 | -119.18309 | 10105 ft | 278 kts | 256° |
| 2026-05-04 22:16 | 50.13022 | -119.21139 | 10096 ft | 261 kts | 255° |
| 2026-05-04 22:16 | 50.12581 | -119.23789 | 10095 ft | 245 kts | 255° |
| 2026-05-04 22:17 | 50.12170 | -119.26334 | 10098 ft | 239 kts | 256° |
| 2026-05-04 22:17 | 50.11769 | -119.28836 | 10095 ft | 238 kts | 256° |
| 2026-05-04 22:17 | 50.11365 | -119.31334 | 10101 ft | 238 kts | 255° |
| 2026-05-04 22:17 | 50.10964 | -119.33798 | 10103 ft | 238 kts | 255° |
| 2026-05-04 22:18 | 50.10558 | -119.36299 | 10103 ft | 238 kts | 255° |
| 2026-05-04 22:18 | 50.10153 | -119.38801 | 10103 ft | 238 kts | 255° |
| 2026-05-04 22:18 | 50.09747 | -119.41302 | 10105 ft | 238 kts | 255° |
| 2026-05-04 22:18 | 50.09338 | -119.43803 | 10105 ft | 238 kts | 255° |
| 2026-05-04 22:19 | 50.08930 | -119.46301 | 10105 ft | 238 kts | 255° |
| 2026-05-04 22:19 | 50.08521 | -119.48803 | 10105 ft | 238 kts | 255° |
| 2026-05-04 22:19 | 50.08112 | -119.51302 | 10106 ft | 238 kts | 255° |
| 2026-05-04 22:19 | 50.07702 | -119.53804 | 10106 ft | 237 kts | 255° |
| 2026-05-04 22:20 | 50.07309 | -119.56208 | 10109 ft | 219 kts | 255° |
| 2026-05-04 22:20 | 50.06912 | -119.58318 | 10046 ft | 189 kts | 247° |
| 2026-05-04 22:20 | 50.06195 | -119.59948 | 9471 ft | 178 kts | 225° |
| 2026-05-04 22:20 | 50.05215 | -119.61079 | 8912 ft | 174 kts | 208° |
| 2026-05-04 22:21 | 50.04130 | -119.61882 | 8383 ft | 172 kts | 204° |
| 2026-05-04 22:21 | 50.03052 | -119.62653 | 7853 ft | 169 kts | 205° |
| 2026-05-04 22:21 | 50.01996 | -119.63449 | 7338 ft | 168 kts | 206° |
| 2026-05-04 22:21 | 50.00963 | -119.64215 | 7095 ft | 159 kts | 205° |
| 2026-05-04 22:22 | 49.99904 | -119.64833 | 7059 ft | 165 kts | 184° |
| 2026-05-04 22:22 | 49.98790 | -119.64544 | 7115 ft | 168 kts | 170° |
| 2026-05-04 22:22 | 49.97632 | -119.64423 | 7121 ft | 166 kts | 181° |
| 2026-05-04 22:22 | 49.96471 | -119.64433 | 7120 ft | 167 kts | 180° |
| 2026-05-04 22:23 | 49.95299 | -119.64405 | 7111 ft | 165 kts | 179° |
| 2026-05-04 22:23 | 49.94152 | -119.64406 | 7112 ft | 166 kts | 182° |
| 2026-05-04 22:23 | 49.92989 | -119.64428 | 7112 ft | 168 kts | 181° |
| 2026-05-04 22:23 | 49.91825 | -119.64415 | 7110 ft | 168 kts | 179° |
| 2026-05-04 22:24 | 49.90664 | -119.64388 | 7111 ft | 167 kts | 180° |
| 2026-05-04 22:24 | 49.89504 | -119.64373 | 7107 ft | 167 kts | 180° |
| 2026-05-04 22:24 | 49.88340 | -119.64367 | 7110 ft | 167 kts | 180° |
| 2026-05-04 22:24 | 49.87181 | -119.64356 | 7102 ft | 167 kts | 180° |
| 2026-05-04 22:25 | 49.86017 | -119.64353 | 7110 ft | 167 kts | 180° |
| 2026-05-04 22:25 | 49.84856 | -119.64338 | 7105 ft | 167 kts | 180° |
| 2026-05-04 22:25 | 49.83695 | -119.64333 | 7055 ft | 169 kts | 180° |
| 2026-05-04 22:25 | 49.82528 | -119.64253 | 6833 ft | 168 kts | 170° |
| 2026-05-04 22:26 | 49.81448 | -119.63610 | 6657 ft | 167 kts | 154° |
| 2026-05-04 22:26 | 49.80478 | -119.62630 | 6470 ft | 167 kts | 141° |
| 2026-05-04 22:26 | 49.79686 | -119.61328 | 6291 ft | 167 kts | 128° |
| 2026-05-04 22:26 | 49.79108 | -119.59777 | 6113 ft | 167 kts | 114° |
| 2026-05-04 22:27 | 49.78775 | -119.58083 | 5936 ft | 167 kts | 101° |
| 2026-05-04 22:27 | 49.78700 | -119.56293 | 5757 ft | 167 kts | 88° |
| 2026-05-04 22:27 | 49.78897 | -119.54539 | 5710 ft | 166 kts | 74° |
| 2026-05-04 22:27 | 49.79348 | -119.52888 | 5707 ft | 167 kts | 61° |
| 2026-05-04 22:28 | 49.80029 | -119.51438 | 5705 ft | 167 kts | 47° |
| 2026-05-04 22:28 | 49.80854 | -119.50170 | 5616 ft | 161 kts | 44° |
| 2026-05-04 22:28 | 49.81644 | -119.48987 | 5458 ft | 157 kts | 44° |
| 2026-05-04 22:28 | 49.82418 | -119.47793 | 5331 ft | 157 kts | 45° |
| 2026-05-04 22:29 | 49.83134 | -119.46587 | 5142 ft | 152 kts | 53° |
| 2026-05-04 22:29 | 49.83694 | -119.45216 | 4877 ft | 150 kts | 62° |
| 2026-05-04 22:29 | 49.84098 | -119.43705 | 4472 ft | 152 kts | 73° |
| 2026-05-04 22:29 | 49.84423 | -119.42152 | 4068 ft | 151 kts | 68° |
| 2026-05-04 22:30 | 49.84918 | -119.40717 | 3678 ft | 151 kts | 58° |
| 2026-05-04 22:30 | 49.85545 | -119.39422 | 3283 ft | 150 kts | 49° |
| 2026-05-04 22:30 | 49.86281 | -119.38301 | 2903 ft | 148 kts | 38° |
| 2026-05-04 22:30 | 49.87160 | -119.37469 | 2535 ft | 148 kts | 24° |
| 2026-05-04 22:31 | 49.88102 | -119.36989 | 2483 ft | 141 kts | 12° |
| 2026-05-04 22:31 | 49.89083 | -119.36784 | 2503 ft | 147 kts | 359° |
| 2026-05-04 22:31 | 49.90130 | -119.36965 | 2388 ft | 158 kts | 351° |
| 2026-05-04 22:31 | 49.91252 | -119.37160 | 2183 ft | 159 kts | 353° |
| 2026-05-04 22:32 | 49.92283 | -119.37314 | 1951 ft | 146 kts | 354° |
| 2026-05-04 22:32 | 49.93269 | -119.37439 | 1770 ft | 140 kts | 353° |
| 2026-05-04 22:32 | 49.94234 | -119.37591 | 1537 ft | 137 kts | 353° |
| 2026-05-04 22:32 | 49.95150 | -119.37718 | 1423 ft | 119 kts | 354° |
| 2026-05-04 22:33 | 49.95260 | -119.37737 | 1426 ft | 110 kts | 353° |
| 2026-05-04 22:33 | 49.95842 | -119.37816 | 1425 ft | 61 kts | 357° |
| 2026-05-04 22:33 | 49.96187 | -119.37861 | 1424 ft | 27 kts | 354° |
| 2026-05-04 22:33 | 49.96345 | -119.37888 | 1423 ft | 24 kts | 353° |
| 2026-05-04 22:34 | 49.96523 | -119.37919 | 1420 ft | 27 kts | 353° |
| 2026-05-04 22:34 | 49.96605 | -119.38007 | 1422 ft | 10 kts | 265° |
| 2026-05-04 22:34 | 49.96556 | -119.38050 | 1422 ft | 9 kts | 174° |
| 2026-05-04 22:34 | 49.96491 | -119.38040 | 1422 ft | 11 kts | 175° |
| 2026-05-04 22:35 | 49.96393 | -119.38028 | 1423 ft | 18 kts | 175° |
| 2026-05-04 22:35 | 49.96244 | -119.38008 | 1423 ft | 27 kts | 174° |
| 2026-05-04 22:35 | 49.96043 | -119.37978 | 1424 ft | 30 kts | 175° |
| 2026-05-04 22:35 | 49.95833 | -119.37952 | 1423 ft | 18 kts | 175° |
| 2026-05-04 22:36 | 49.95718 | -119.37980 | 1423 ft | 13 kts | 210° |
| 2026-05-04 22:36 | 49.95629 | -119.38009 | 1423 ft | 12 kts | 175° |
| 2026-05-04 22:36 | 49.95552 | -119.38004 | 1423 ft | 8 kts | 205° |
| 2026-05-04 22:36 | 49.95537 | -119.38067 | 1423 ft | 7 kts | 281° |
| 2026-05-04 22:37 | 49.95538 | -119.38075 | 1423 ft | 0 kts | 281° |